Time;durP1;ratioP1;P1;durP2;ratioP2;P2;SDS_P1;SDS_P2;PMS_P1;PMS_P2;Temp;Humidity;BMP_temperature;BMP_pressure;BME280_temperature;BME280_humidity;BME280_pressure;Samples;Min_cycle;Max_cycle;Signal;HPM_P1;HPM_P2
2021/01/31 00:01:02;;;;;;;85.83;43.80;;;;;;;-1.90;80.96;98370.03;1758500;80;21170;-47
2021/01/31 00:03:30;;;;;;;93.33;46.33;;;;;;;-1.94;80.81;98359.86;1724595;81;21014;-47
2021/01/31 00:06:02;;;;;;;92.30;47.78;;;;;;;-1.97;80.94;98354.05;1781057;79;21114;-47
2021/01/31 00:08:30;;;;;;;92.25;47.00;;;;;;;-1.98;81.12;98363.58;1783896;79;21087;-47
2021/01/31 00:10:58;;;;;;;93.05;48.70;;;;;;;-2.01;80.85;98370.73;1783388;79;23046;-47
2021/01/31 00:13:28;;;;;;;94.70;47.70;;;;;;;-2.08;80.66;98380.19;1782136;79;21138;-47
2021/01/31 00:15:56;;;;;;;94.90;50.95;;;;;;;-2.16;80.64;98367.36;1788192;79;21170;-47
2021/01/31 00:18:28;;;;;;;99.85;51.23;;;;;;;-2.17;80.86;98339.77;1779294;79;20988;-47
2021/01/31 00:20:57;;;;;;;95.22;49.42;;;;;;;-2.16;81.05;98347.44;1776626;79;21116;-47
2021/01/31 00:23:26;;;;;;;90.50;48.55;;;;;;;-2.15;81.04;98332.73;1780781;79;21169;-47
2021/01/31 00:25:55;;;;;;;91.70;46.30;;;;;;;-2.21;81.02;98327.45;1753724;81;21045;-47
2021/01/31 00:28:25;;;;;;;93.30;46.45;;;;;;;-2.29;81.07;98340.06;1773760;80;21133;-48
2021/01/31 00:30:53;;;;;;;83.07;44.03;;;;;;;-2.35;81.01;98354.24;1744222;81;21134;-48
2021/01/31 00:33:25;;;;;;;64.75;35.17;;;;;;;-2.40;81.15;98368.77;1749315;79;21105;-48
2021/01/31 00:35:54;;;;;;;67.03;34.55;;;;;;;-2.45;81.17;98382.94;1760216;80;21892;-47
2021/01/31 00:38:23;;;;;;;61.45;31.35;;;;;;;-2.56;81.07;98376.66;1776080;79;21177;-47
2021/01/31 00:40:51;;;;;;;57.38;29.95;;;;;;;-2.63;81.13;98377.10;1760368;79;21137;-47
2021/01/31 00:43:19;;;;;;;54.10;28.27;;;;;;;-2.73;81.19;98385.45;1755733;79;22097;-47
2021/01/31 00:45:49;;;;;;;54.67;28.45;;;;;;;-2.80;81.34;98383.31;1779119;79;21130;-47
2021/01/31 00:48:17;;;;;;;49.25;27.45;;;;;;;-2.85;81.37;98382.30;1775073;79;21192;-48
2021/01/31 00:50:45;;;;;;;47.88;26.15;;;;;;;-2.89;81.42;98394.58;1752900;81;21645;-47
2021/01/31 00:53:15;;;;;;;47.80;27.00;;;;;;;-2.91;81.50;98400.31;1782586;79;21937;-47
2021/01/31 00:55:46;;;;;;;;;;;;;;;-2.93;81.46;98402.16;1778661;80;22059;-47
2021/01/31 00:58:14;;;;;;;40.35;20.92;;;;;;;-2.94;81.52;98408.25;1756146;79;20292;-47
2021/01/31 01:00:42;;;;;;;40.98;21.80;;;;;;;-2.95;81.50;98413.54;1720067;81;21391;-48
2021/01/31 01:03:11;;;;;;;36.98;20.48;;;;;;;-2.97;81.42;98418.79;1742005;79;21216;-48
2021/01/31 01:06:05;;;;;;;33.20;19.12;;;;;;;-2.97;81.44;98422.67;1793306;77;26727;-48
2021/01/31 01:08:32;;;;;;;34.75;19.23;;;;;;;-3.04;81.59;98418.33;1764829;79;21142;-49
2021/01/31 01:11:00;;;;;;;35.65;19.15;;;;;;;-3.06;81.55;98421.47;1765139;77;21649;-48
2021/01/31 01:13:28;;;;;;;35.92;17.45;;;;;;;-3.06;81.82;98423.20;1765586;79;22072;-48
2021/01/31 01:15:56;;;;;;;35.95;19.00;;;;;;;-3.05;81.84;98422.28;1765082;79;21003;-48
2021/01/31 01:18:24;;;;;;;31.48;17.17;;;;;;;-3.04;81.80;98433.01;1788798;79;20912;-48
2021/01/31 01:20:51;;;;;;;27.00;16.12;;;;;;;-3.02;81.87;98427.28;1769789;79;20951;-48
2021/01/31 01:23:19;;;;;;;25.57;15.48;;;;;;;-2.98;81.80;98434.80;1769827;79;21208;-48
2021/01/31 01:25:47;;;;;;;26.75;14.15;;;;;;;-2.97;81.70;98436.91;1774461;79;21927;-48
2021/01/31 01:28:15;;;;;;;24.65;13.62;;;;;;;-2.97;81.72;98438.20;1770275;79;20964;-48
2021/01/31 01:30:44;;;;;;;21.52;12.05;;;;;;;-2.97;81.57;98449.85;1769109;77;21125;-48
2021/01/31 01:33:11;;;;;;;24.85;13.70;;;;;;;-2.99;81.47;98453.84;1771123;79;20987;-48
2021/01/31 01:35:39;;;;;;;24.02;12.98;;;;;;;-3.03;81.40;98454.09;1773305;77;21198;-48
2021/01/31 01:38:07;;;;;;;21.17;12.47;;;;;;;-3.05;81.48;98459.38;1773366;79;21609;-48
2021/01/31 01:40:37;;;;;;;21.68;12.37;;;;;;;-3.05;81.60;98467.58;1767648;77;21125;-48
2021/01/31 01:43:05;;;;;;;19.50;11.85;;;;;;;-3.05;81.61;98468.87;1738065;80;21605;-48
2021/01/31 01:45:33;;;;;;;26.05;12.30;;;;;;;-3.06;81.55;98471.09;1770879;79;21086;-48
2021/01/31 01:48:08;;;;;;;20.72;12.37;;;;;;;-3.09;81.60;98471.27;1769683;79;21140;-48
2021/01/31 01:50:49;;;;;;;21.80;12.58;;;;;;;-3.09;81.68;98475.15;1764359;78;20971;-48
2021/01/31 01:53:18;;;;;;;23.62;13.20;;;;;;;-3.10;81.74;98482.09;1770046;79;21867;-48
2021/01/31 01:55:57;;;;;;;20.15;11.43;;;;;;;-3.08;81.75;98492.34;1769043;77;20971;-48
2021/01/31 01:58:26;;;;;;;21.00;11.80;;;;;;;-3.11;81.65;98486.89;1768280;77;21931;-47
2021/01/31 02:00:54;;;;;;;20.02;10.70;;;;;;;-3.15;81.78;98495.28;1745617;79;21217;-48
2021/01/31 02:03:28;;;;;;;19.80;11.43;;;;;;;-3.17;81.99;98500.19;1769384;79;20963;-48
2021/01/31 02:06:09;;;;;;;18.62;10.88;;;;;;;-3.22;82.27;98505.63;1769852;77;20955;-48
2021/01/31 02:08:39;;;;;;;22.67;12.50;;;;;;;-3.26;82.66;98512.72;1776225;79;21578;-48
2021/01/31 02:11:09;;;;;;;23.70;11.18;;;;;;;-3.29;83.07;98518.06;1759138;79;22111;-48
2021/01/31 02:13:37;;;;;;;19.87;10.68;;;;;;;-3.28;83.36;98524.08;1769800;79;21208;-48
2021/01/31 02:16:08;;;;;;;19.42;11.10;;;;;;;-3.27;83.30;98529.64;1771123;79;21314;-47
2021/01/31 02:18:58;;;;;;;17.55;9.85;;;;;;;-3.27;83.22;98545.16;1769363;77;20979;-48
2021/01/31 02:21:57;;;;;;;18.65;10.03;;;;;;;-3.27;83.35;98548.56;1768460;77;21070;-48
2021/01/31 02:25:03;;;;;;;16.85;8.55;;;;;;;-3.27;83.30;98552.92;1757328;79;21075;-48
2021/01/31 02:28:19;;;;;;;15.23;8.60;;;;;;;-3.28;83.36;98566.78;1762947;79;21385;-48
2021/01/31 02:31:28;;;;;;;17.62;9.88;;;;;;;-3.30;83.35;98575.91;1726084;79;21999;-48
2021/01/31 02:34:25;;;;;;;17.15;9.28;;;;;;;-3.32;83.36;98579.50;1701667;81;21175;-48
2021/01/31 02:37:18;;;;;;;16.10;8.23;;;;;;;-3.34;83.44;98580.86;1764427;79;20944;-48
2021/01/31 02:40:05;;;;;;;;;;;;;;;-3.35;83.92;98581.78;1767032;79;20924;-48
2021/01/31 02:43:14;;;;;;;18.45;8.18;;;;;;;-3.33;84.13;98589.48;1759053;79;21241;-47
2021/01/31 02:45:53;;;;;;;14.85;8.25;;;;;;;-3.34;84.02;98593.80;1771385;79;22040;-48
2021/01/31 02:48:47;;;;;;;14.15;8.28;;;;;;;-3.34;83.77;98608.03;1771069;79;22070;-48
2021/01/31 02:51:25;;;;;;;15.08;8.35;;;;;;;-3.31;83.62;98613.52;1768521;79;21113;-48
2021/01/31 02:54:12;;;;;;;14.03;8.53;;;;;;;-3.28;83.48;98618.53;1769493;77;21080;-48
2021/01/31 02:56:47;;;;;;;16.50;8.18;;;;;;;-3.27;83.20;98625.38;1780557;79;22858;-47
2021/01/31 02:59:29;;;;;;;13.32;7.65;;;;;;;-3.28;82.91;98637.93;1770110;77;21121;-48
2021/01/31 03:02:04;;;;;;;16.73;8.68;;;;;;;-3.30;82.80;98643.17;1770923;77;21554;-48
2021/01/31 03:04:44;;;;;;;13.78;7.83;;;;;;;-3.29;82.83;98644.84;1738026;79;21086;-47
2021/01/31 03:07:19;;;;;;;14.28;8.18;;;;;;;-3.25;82.80;98645.53;1776922;79;21098;-48
2021/01/31 03:10:09;;;;;;;15.35;8.45;;;;;;;-3.25;82.55;98644.23;1774305;77;21382;-48
2021/01/31 03:12:48;;;;;;;12.78;7.58;;;;;;;-3.24;82.40;98653.67;1761468;79;21007;-48
2021/01/31 03:15:27;;;;;;;13.60;7.47;;;;;;;-3.20;82.41;98656.47;1845702;76;28464;-48
2021/01/31 03:18:34;;;;;;;11.97;7.33;;;;;;;-3.24;82.37;98664.02;1816923;77;21584;-48
2021/01/31 03:21:17;;;;;;;11.95;7.47;;;;;;;-3.24;82.30;98661.88;1815447;77;23030;-48
2021/01/31 03:23:56;;;;;;;13.10;7.80;;;;;;;-3.23;82.32;98677.34;1817160;77;21205;-48
2021/01/31 03:26:38;;;;;;;13.43;6.83;;;;;;;-3.25;82.13;98684.34;1821482;77;20966;-48
2021/01/31 03:29:06;;;;;;;13.00;7.42;;;;;;;-3.28;82.19;98688.39;1785712;77;20982;-47
2021/01/31 03:31:36;;;;;;;11.65;7.05;;;;;;;-3.28;82.34;98689.68;1817373;77;20974;-48
2021/01/31 03:34:08;;;;;;;11.85;7.03;;;;;;;-3.27;82.32;98703.00;1817648;77;21381;-47
2021/01/31 03:36:39;;;;;;;13.68;7.15;;;;;;;-3.29;82.10;98708.71;1826332;77;21543;-47
2021/01/31 03:39:07;;;;;;;14.68;8.50;;;;;;;-3.31;82.02;98716.53;1814604;77;21108;-47
2021/01/31 03:41:34;;;;;;;13.98;8.10;;;;;;;-3.31;81.77;98727.36;1815885;77;21508;-47
2021/01/31 03:44:02;;;;;;;17.35;7.58;;;;;;;-3.32;81.52;98741.22;1814440;77;21504;-47
2021/01/31 03:46:37;;;;;;;17.30;8.60;;;;;;;-3.35;81.18;98754.31;1814849;77;22521;-46
2021/01/31 03:49:12;;;;;;;15.13;7.95;;;;;;;-3.41;81.08;98754.14;1786435;77;21100;-47
2021/01/31 03:51:40;;;;;;;14.95;7.75;;;;;;;-3.45;81.09;98756.51;1824039;77;20977;-48
2021/01/31 03:54:07;;;;;;;14.23;8.18;;;;;;;-3.47;81.17;98766.95;1814518;77;21671;-47
2021/01/31 03:56:40;;;;;;;18.10;8.80;;;;;;;-3.50;81.15;98776.16;1814348;77;20992;-48
2021/01/31 03:59:08;;;;;;;14.65;9.10;;;;;;;-3.51;81.41;98779.66;1812857;77;21261;-47
2021/01/31 04:01:37;;;;;;;18.07;9.73;;;;;;;-3.49;81.63;98786.89;1778418;77;21013;-47
2021/01/31 04:04:24;;;;;;;15.98;9.85;;;;;;;-3.45;81.75;98788.41;1784038;78;20961;-47
2021/01/31 04:06:53;;;;;;;15.88;9.55;;;;;;;-3.42;81.70;98790.84;1803370;77;21100;-47
2021/01/31 04:09:21;;;;;;;17.27;9.98;;;;;;;-3.41;81.88;98801.56;1782496;78;21585;-47
2021/01/31 04:11:49;;;;;;;13.25;8.48;;;;;;;-3.34;82.04;98808.55;1814373;77;21364;-47
2021/01/31 04:14:44;;;;;;;17.30;9.98;;;;;;;-3.32;81.81;98810.59;1757011;78;22110;-47
2021/01/31 04:17:12;;;;;;;16.87;9.50;;;;;;;-3.29;81.76;98823.85;1815030;77;21116;-47
2021/01/31 04:19:39;;;;;;;14.87;9.38;;;;;;;-3.24;81.66;98824.45;1750582;80;21003;-47
2021/01/31 04:22:07;;;;;;;14.15;8.58;;;;;;;-3.24;81.47;98822.31;1760265;80;21133;-47
2021/01/31 04:24:35;;;;;;;14.50;8.23;;;;;;;-3.24;81.47;98827.48;1756990;79;21435;-47
2021/01/31 04:27:03;;;;;;;14.38;8.75;;;;;;;-3.27;81.36;98828.50;1759666;79;22010;-47
2021/01/31 04:29:32;;;;;;;14.50;8.65;;;;;;;-3.31;81.41;98834.73;1766928;79;22178;-47
2021/01/31 04:32:00;;;;;;;15.15;8.63;;;;;;;-3.30;81.56;98839.00;1755859;79;20982;-47
2021/01/31 04:34:28;;;;;;;13.03;8.10;;;;;;;-3.30;81.57;98850.17;1759808;79;21010;-47
2021/01/31 04:36:55;;;;;;;15.53;8.60;;;;;;;-3.30;81.51;98857.94;1766037;79;21554;-47
2021/01/31 04:39:23;;;;;;;16.52;8.63;;;;;;;-3.30;81.37;98864.87;1766703;79;21649;-47
2021/01/31 04:41:50;;;;;;;15.05;8.50;;;;;;;-3.33;81.27;98863.73;1753087;79;21039;-47
2021/01/31 04:44:20;;;;;;;15.10;7.70;;;;;;;-3.34;81.50;98875.00;1759446;79;20990;-47
2021/01/31 04:46:55;;;;;;;14.43;8.50;;;;;;;-3.34;81.67;98878.88;1763102;79;21108;-47
2021/01/31 04:49:56;;;;;;;14.68;8.45;;;;;;;-3.34;81.79;98889.23;1762509;79;22088;-47
2021/01/31 04:52:58;;;;;;;11.25;7.17;;;;;;;-3.34;82.01;98890.52;1762701;79;20986;-47
2021/01/31 04:55:43;;;;;;;14.90;8.60;;;;;;;-3.29;82.12;98901.48;1761875;79;20998;-47
2021/01/31 04:58:19;;;;;;;16.45;8.70;;;;;;;-3.27;81.97;98904.83;1749114;80;21113;-47
2021/01/31 05:01:04;;;;;;;17.25;9.25;;;;;;;-3.28;81.97;98908.33;1753411;80;21121;-47
2021/01/31 05:03:35;;;;;;;18.05;9.68;;;;;;;-3.24;81.92;98920.65;1764736;79;21430;-46
2021/01/31 05:06:08;;;;;;;17.70;9.10;;;;;;;-3.24;81.77;98925.38;1760116;79;26762;-47
2021/01/31 05:08:35;;;;;;;14.98;9.55;;;;;;;-3.23;81.79;98928.80;1775031;79;20986;-47
2021/01/31 05:11:34;;;;;;;14.53;8.73;;;;;;;-3.21;81.78;98942.05;1769907;79;21129;-47
2021/01/31 05:14:12;;;;;;;16.32;9.23;;;;;;;-3.20;81.74;98949.34;1765737;79;21203;-47
2021/01/31 05:16:40;;;;;;;18.85;9.90;;;;;;;-3.18;81.77;98961.28;1751747;80;21365;-47
2021/01/31 05:19:12;;;;;;;15.18;8.60;;;;;;;-3.15;81.69;98967.61;1758671;80;21725;-47
2021/01/31 05:21:40;;;;;;;20.68;11.43;;;;;;;-3.11;81.79;98969.61;1759203;80;20982;-47
2021/01/31 05:24:15;;;;;;;21.75;10.63;;;;;;;-3.07;81.65;98976.75;1756381;80;21596;-48
2021/01/31 05:27:01;;;;;;;19.92;9.90;;;;;;;-3.06;81.60;98978.42;1750409;80;21103;-47
2021/01/31 05:29:35;;;;;;;18.45;11.03;;;;;;;-3.06;81.48;98979.72;1753503;80;21396;-47
2021/01/31 05:32:15;;;;;;;17.92;9.68;;;;;;;-3.02;81.45;98987.72;1754427;80;21168;-47
2021/01/31 05:34:57;;;;;;;17.03;9.27;;;;;;;-3.01;81.16;98986.80;1756968;80;21002;-47
2021/01/31 05:37:44;;;;;;;17.60;9.85;;;;;;;-3.02;81.00;98998.93;1777174;79;21952;-46
2021/01/31 05:40:14;;;;;;;17.95;10.20;;;;;;;-3.05;81.00;98999.52;1743407;80;21110;-47
2021/01/31 05:42:45;;;;;;;17.17;9.98;;;;;;;-3.07;81.01;99005.22;1711815;82;21561;-47
2021/01/31 05:45:24;;;;;;;20.72;9.80;;;;;;;-3.09;81.09;99007.91;1761732;80;21333;-47
2021/01/31 05:47:52;;;;;;;20.57;10.38;;;;;;;-3.09;81.23;99018.25;1748093;80;21017;-47
2021/01/31 05:50:36;;;;;;;23.32;13.10;;;;;;;-3.08;81.06;99020.38;1736691;80;21149;-47
2021/01/31 05:53:30;;;;;;;20.85;11.85;;;;;;;-3.11;81.10;99026.08;1756220;80;20951;-48
2021/01/31 05:56:27;;;;;;;22.22;12.07;;;;;;;-3.05;81.38;99033.17;1740913;80;21398;-48
2021/01/31 05:59:06;;;;;;;22.40;11.88;;;;;;;-2.95;81.61;99039.58;1754431;80;21160;-48
2021/01/31 06:01:54;;;;;;;22.05;12.05;;;;;;;-2.86;81.20;99038.31;1757219;80;21160;-48
2021/01/31 06:04:24;;;;;;;22.75;11.78;;;;;;;-2.83;81.02;99038.98;1750583;80;21119;-48
2021/01/31 06:06:54;;;;;;;21.68;11.38;;;;;;;-2.77;80.95;99053.84;1771768;79;20980;-48
2021/01/31 06:09:33;;;;;;;19.70;11.50;;;;;;;-2.73;80.79;99048.90;1753899;80;22818;-48
2021/01/31 06:12:08;;;;;;;25.23;13.85;;;;;;;-2.72;80.71;99057.91;1776382;79;22093;-48
2021/01/31 06:14:39;;;;;;;22.67;12.63;;;;;;;-2.69;80.64;99051.72;1770145;79;21958;-48
2021/01/31 06:17:20;;;;;;;22.60;11.83;;;;;;;-2.72;80.40;99064.82;1773010;79;21608;-48
2021/01/31 06:19:48;;;;;;;23.32;12.60;;;;;;;-2.75;80.53;99064.53;1771182;79;21552;-48
2021/01/31 06:22:15;;;;;;;26.20;13.60;;;;;;;-2.75;80.62;99069.71;1777401;79;21995;-47
2021/01/31 06:24:48;;;;;;;26.85;14.90;;;;;;;-2.74;80.74;99075.72;1750193;80;21155;-50
2021/01/31 06:27:33;;;;;;;23.75;13.70;;;;;;;-2.71;80.82;99089.37;1756777;80;21602;-47
2021/01/31 06:30:18;;;;;;;23.47;12.70;;;;;;;-2.68;80.82;99094.84;1771549;79;21002;-47
2021/01/31 06:32:47;;;;;;;21.52;12.53;;;;;;;-2.64;80.82;99092.92;1720405;80;21149;-47
2021/01/31 06:35:16;;;;;;;24.82;13.48;;;;;;;-2.62;80.62;99104.05;1746484;80;21656;-47
2021/01/31 06:38:07;;;;;;;27.20;13.10;;;;;;;-2.62;80.70;99107.94;1730450;80;21014;-47
2021/01/31 06:41:06;;;;;;;26.10;13.30;;;;;;;-2.62;80.72;99112.68;1736844;79;22029;-47
2021/01/31 06:44:07;;;;;;;26.60;13.68;;;;;;;-2.61;80.70;99114.36;1742192;81;21136;-47
2021/01/31 06:46:59;;;;;;;25.03;15.80;;;;;;;-2.60;80.83;99116.03;1799721;76;27947;-47
2021/01/31 06:49:56;;;;;;;25.90;13.80;;;;;;;-2.56;80.85;99125.78;1793188;78;22155;-47
2021/01/31 06:53:07;;;;;;;21.62;12.80;;;;;;;-2.54;80.76;99129.98;1800765;78;22824;-48
2021/01/31 06:56:03;;;;;;;25.15;13.53;;;;;;;-2.54;80.93;99136.91;1739079;80;21043;-47
2021/01/31 06:58:51;;;;;;;28.15;14.03;;;;;;;-2.54;81.05;99132.58;1799808;78;21006;-47
2021/01/31 07:01:51;;;;;;;26.52;14.15;;;;;;;-2.48;81.15;99139.67;1786395;78;21420;-48
2021/01/31 07:04:50;;;;;;;26.45;14.07;;;;;;;-2.43;81.13;99150.66;1759896;80;20982;-47
2021/01/31 07:07:56;;;;;;;27.73;13.08;;;;;;;-2.36;81.13;99157.22;1772995;80;23051;-48
2021/01/31 07:11:14;;;;;;;29.18;13.10;;;;;;;-2.24;81.08;99156.63;1764601;78;21010;-48
2021/01/31 07:14:19;;;;;;;28.00;15.00;;;;;;;-2.11;80.68;99163.76;1763452;80;20986;-48
2021/01/31 07:17:04;;;;;;;27.42;14.93;;;;;;;-1.91;80.62;99161.92;1772010;80;21599;-47
2021/01/31 07:19:50;;;;;;;28.60;15.20;;;;;;;-1.69;81.02;99166.41;1766867;80;21108;-47
2021/01/31 07:22:39;;;;;;;25.45;12.88;;;;;;;-1.42;80.43;99165.89;1769714;80;21492;-55
2021/01/31 07:25:15;;;;;;;23.57;12.82;;;;;;;-1.20;78.37;99166.06;1755301;80;21018;-48
2021/01/31 07:28:05;;;;;;;26.05;14.10;;;;;;;-1.17;77.19;99163.75;1770146;80;20967;-48
2021/01/31 07:30:39;;;;;;;24.55;12.13;;;;;;;-1.20;76.97;99172.55;1758942;80;21104;-47
2021/01/31 07:33:13;;;;;;;26.42;13.03;;;;;;;-1.24;76.07;99183.55;1768609;80;21593;-47
2021/01/31 07:36:18;;;;;;;24.63;12.58;;;;;;;-1.29;75.70;99186.02;1768423;80;22116;-48
2021/01/31 07:39:00;;;;;;;21.62;11.55;;;;;;;-1.34;75.71;99192.73;1767306;80;20962;-48
2021/01/31 07:41:28;;;;;;;25.08;13.08;;;;;;;-1.36;75.69;99194.58;1766001;80;20947;-48
2021/01/31 07:44:00;;;;;;;25.30;12.45;;;;;;;-1.35;75.62;99206.19;1761336;80;22163;-47
2021/01/31 07:46:28;;;;;;;26.45;13.38;;;;;;;-1.34;75.28;99212.20;1757829;80;21728;-48
2021/01/31 07:49:00;;;;;;;26.30;13.32;;;;;;;-1.35;74.99;99220.91;1744568;80;21115;-48
2021/01/31 07:51:37;;;;;;;22.45;10.82;;;;;;;-1.36;75.07;99230.47;1742073;80;21153;-48
2021/01/31 07:54:24;;;;;;;24.20;12.65;;;;;;;-1.34;74.99;99231.67;1753706;79;21027;-48
2021/01/31 07:56:54;;;;;;;21.23;12.13;;;;;;;-1.34;74.72;99237.72;1744271;80;20972;-48
2021/01/31 07:59:28;;;;;;;24.07;12.18;;;;;;;-1.32;74.50;99236.80;1747230;80;20943;-48
2021/01/31 08:01:56;;;;;;;22.58;12.23;;;;;;;-1.33;74.23;99237.25;1742067;80;21383;-48
2021/01/31 08:04:35;;;;;;;20.92;11.53;;;;;;;-1.32;74.50;99236.80;1743887;80;21026;-48
2021/01/31 08:07:05;;;;;;;21.52;10.70;;;;;;;-1.27;74.37;99243.89;1736115;80;22049;-47
2021/01/31 08:09:44;;;;;;;21.97;11.57;;;;;;;-1.22;73.97;99247.09;1726014;81;21002;-48
2021/01/31 08:12:13;;;;;;;19.75;11.00;;;;;;;-1.22;73.07;99255.70;1744950;81;22184;-48
2021/01/31 08:15:12;;;;;;;19.67;10.18;;;;;;;-1.19;73.42;99261.22;1736419;80;21369;-47
2021/01/31 08:17:57;;;;;;;22.58;11.08;;;;;;;-1.12;73.00;99269.07;1731996;81;21579;-48
2021/01/31 08:20:39;;;;;;;24.18;11.85;;;;;;;-1.05;72.79;99279.48;1749973;80;21872;-48
2021/01/31 08:23:24;;;;;;;22.85;11.20;;;;;;;-0.94;73.05;99290.63;1757958;80;20999;-48
2021/01/31 08:25:58;;;;;;;20.37;10.32;;;;;;;-0.82;72.92;99293.52;1738213;81;21133;-47
2021/01/31 08:28:32;;;;;;;19.62;10.05;;;;;;;-0.75;72.32;99297.46;1749606;80;21201;-48
2021/01/31 08:31:13;;;;;;;25.12;11.95;;;;;;;-0.74;71.97;99293.94;1725762;81;21033;-47
2021/01/31 08:33:43;;;;;;;19.30;11.00;;;;;;;-0.75;71.91;99307.37;1742458;81;21942;-48
2021/01/31 08:36:21;;;;;;;20.70;10.53;;;;;;;-0.77;71.27;99307.92;1744882;81;21113;-47
2021/01/31 08:38:54;;;;;;;25.55;13.60;;;;;;;-0.81;71.68;99311.60;1753615;80;20999;-47
2021/01/31 08:41:38;;;;;;;24.52;12.10;;;;;;;-0.83;71.37;99316.04;1748027;80;21365;-47
2021/01/31 08:44:15;;;;;;;17.92;10.55;;;;;;;-0.79;71.62;99311.06;1724989;81;21003;-47
2021/01/31 08:46:58;;;;;;;21.20;9.55;;;;;;;-0.74;71.17;99317.33;1743144;80;21155;-47
2021/01/31 08:49:26;;;;;;;18.02;9.90;;;;;;;-0.67;70.62;99322.59;1741590;81;21121;-47
2021/01/31 08:52:05;;;;;;;20.62;10.85;;;;;;;-0.57;70.54;99325.52;1736593;81;21596;-47
2021/01/31 08:54:33;;;;;;;21.40;11.57;;;;;;;-0.41;70.60;99335.10;1743761;81;23061;-47
2021/01/31 08:57:04;;;;;;;19.50;10.55;;;;;;;-0.19;71.54;99330.86;1737250;81;21125;-48
2021/01/31 08:59:39;;;;;;;19.37;11.00;;;;;;;0.12;70.94;99335.67;1750142;81;20999;-48
2021/01/31 09:02:19;;;;;;;19.92;11.05;;;;;;;0.46;69.85;99347.23;1682705;83;21152;-48
2021/01/31 09:05:00;;;;;;;19.30;9.90;;;;;;;0.69;69.16;99348.05;1749485;81;21136;-48
2021/01/31 09:07:37;;;;;;;20.62;10.90;;;;;;;0.97;68.88;99349.50;1743252;81;22890;-48
2021/01/31 09:10:28;;;;;;;19.37;9.43;;;;;;;1.24;67.84;99351.39;1743382;81;20995;-48
2021/01/31 09:13:15;;;;;;;22.82;10.93;;;;;;;1.44;66.64;99352.78;1739756;81;22139;-48
2021/01/31 09:15:43;;;;;;;19.57;9.58;;;;;;;1.68;66.75;99358.72;1740969;81;21609;-48
2021/01/31 09:18:19;;;;;;;18.20;9.93;;;;;;;1.80;65.08;99363.18;1741668;81;21646;-48
2021/01/31 09:20:48;;;;;;;15.58;9.70;;;;;;;1.84;63.76;99363.81;1746258;81;22650;-47
2021/01/31 09:23:34;;;;;;;19.17;10.48;;;;;;;1.74;63.99;99359.65;1745526;81;21617;-49
2021/01/31 09:26:02;;;;;;;19.50;10.45;;;;;;;1.58;64.23;99359.29;1744690;81;21105;-48
2021/01/31 09:28:30;;;;;;;16.67;9.30;;;;;;;1.36;63.53;99358.92;1721582;81;21130;-49
2021/01/31 09:31:01;;;;;;;14.53;8.73;;;;;;;1.12;63.40;99367.28;1748353;81;21150;-48
2021/01/31 09:33:32;;;;;;;16.52;8.25;;;;;;;0.91;63.41;99366.34;1748309;81;21371;-49
2021/01/31 09:36:26;;;;;;;15.48;8.40;;;;;;;0.72;63.26;99373.92;1753553;81;20991;-48
2021/01/31 09:38:55;;;;;;;16.27;8.78;;;;;;;0.69;63.93;99370.64;1748842;81;20944;-48
2021/01/31 09:41:25;;;;;;;13.60;8.13;;;;;;;0.79;64.29;99376.18;1744607;81;21934;-49
2021/01/31 09:44:05;;;;;;;14.70;8.75;;;;;;;1.01;64.01;99379.21;1753630;81;22081;-49
2021/01/31 09:46:34;;;;;;;18.82;9.28;;;;;;;1.11;62.69;99373.42;1751558;81;21442;-49
2021/01/31 09:49:09;;;;;;;15.00;8.05;;;;;;;1.14;62.70;99377.16;1754560;81;22163;-49
2021/01/31 09:51:36;;;;;;;14.23;7.62;;;;;;;1.13;61.55;99380.23;1756057;81;20952;-49
2021/01/31 09:54:29;;;;;;;14.83;7.87;;;;;;;1.11;61.81;99383.40;1753484;81;21168;-48
2021/01/31 09:56:59;;;;;;;16.20;8.85;;;;;;;1.13;61.75;99385.45;1752884;81;21141;-48
2021/01/31 09:59:35;;;;;;;15.90;7.50;;;;;;;1.26;62.57;99399.06;1747612;81;21394;-48
2021/01/31 10:02:12;;;;;;;13.35;7.50;;;;;;;1.43;62.21;99396.73;1751379;81;22016;-47
2021/01/31 10:04:41;;;;;;;12.95;6.95;;;;;;;1.61;62.08;99402.59;1739606;80;21010;-48
2021/01/31 10:07:12;;;;;;;16.62;7.65;;;;;;;1.72;61.19;99407.17;1709636;81;21008;-48
2021/01/31 10:09:42;;;;;;;12.15;7.20;;;;;;;1.77;60.37;99409.03;1750078;81;20974;-48
2021/01/31 10:12:28;;;;;;;12.98;7.40;;;;;;;1.80;59.84;99424.95;1759293;81;22942;-48
2021/01/31 10:15:05;;;;;;;13.93;7.95;;;;;;;1.61;59.59;99424.77;1763050;81;21020;-48
2021/01/31 10:17:44;;;;;;;14.43;7.75;;;;;;;1.39;59.68;99429.14;1744511;81;21134;-48
2021/01/31 10:20:35;;;;;;;16.07;7.70;;;;;;;1.20;59.69;99422.89;1759356;81;21011;-48
2021/01/31 10:23:14;;;;;;;15.48;8.25;;;;;;;1.10;60.72;99419.97;1757081;81;20982;-48
2021/01/31 10:25:45;;;;;;;16.30;7.42;;;;;;;1.24;61.85;99427.81;1742459;81;21152;-48
2021/01/31 10:28:13;;;;;;;10.32;6.10;;;;;;;1.44;61.24;99437.08;1734691;81;21015;-48
2021/01/31 10:30:45;;;;;;;13.85;7.30;;;;;;;1.52;60.24;99436.61;1750988;79;21974;-49
2021/01/31 10:33:46;;;;;;;14.40;6.90;;;;;;;1.47;60.39;99443.87;1745756;81;21994;-47
2021/01/31 10:36:28;;;;;;;13.50;6.80;;;;;;;1.46;59.57;99444.80;1731567;81;21112;-48
2021/01/31 10:38:59;;;;;;;11.18;6.33;;;;;;;1.36;59.59;99438.45;1735204;81;21195;-48
2021/01/31 10:41:27;;;;;;;14.53;6.15;;;;;;;1.27;59.91;99444.58;1754128;81;20959;-48
2021/01/31 10:44:08;;;;;;;10.38;5.60;;;;;;;1.28;60.19;99442.83;1761767;81;20976;-48
2021/01/31 10:46:37;;;;;;;14.28;6.40;;;;;;;1.40;60.17;99442.55;1709218;82;21173;-48
2021/01/31 10:49:06;;;;;;;10.78;5.70;;;;;;;1.51;59.28;99447.97;1756853;80;20932;-48
2021/01/31 10:51:34;;;;;;;11.12;6.05;;;;;;;1.42;59.35;99442.00;1761333;80;21345;-47
2021/01/31 10:54:04;;;;;;;15.32;7.28;;;;;;;1.41;59.89;99452.05;1758455;80;21173;-48
2021/01/31 10:56:32;;;;;;;12.55;6.30;;;;;;;1.58;60.52;99454.50;1699251;80;20993;-48
2021/01/31 10:59:00;;;;;;;14.53;6.90;;;;;;;1.81;59.41;99456.19;1741802;80;21385;-48
2021/01/31 11:01:29;;;;;;;14.18;5.80;;;;;;;1.94;58.65;99463.27;1760768;79;21146;-48
2021/01/31 11:03:57;;;;;;;11.70;6.47;;;;;;;1.94;58.17;99464.58;1762084;80;22875;-48
2021/01/31 11:06:27;;;;;;;11.95;5.70;;;;;;;1.81;57.60;99464.02;1762358;80;22118;-49
2021/01/31 11:08:55;;;;;;;11.73;6.00;;;;;;;1.66;57.68;99469.67;1756793;80;22180;-47
2021/01/31 11:11:24;;;;;;;12.40;7.03;;;;;;;1.50;58.01;99461.12;1707432;81;20969;-47
2021/01/31 11:13:52;;;;;;;12.20;6.85;;;;;;;1.42;58.63;99468.08;1695257;83;21129;-47
2021/01/31 11:16:20;;;;;;;12.03;5.62;;;;;;;1.40;58.51;99467.33;1698011;82;21368;-47
2021/01/31 11:18:47;;;;;;;10.82;6.00;;;;;;;1.33;58.20;99473.38;1677036;84;21068;-48
2021/01/31 11:21:21;;;;;;;11.45;6.08;;;;;;;1.28;58.80;99477.55;1763751;80;21150;-47
2021/01/31 11:23:49;;;;;;;14.20;6.20;;;;;;;1.26;59.81;99474.67;1762814;80;21124;-48
2021/01/31 11:26:17;;;;;;;9.88;5.17;;;;;;;1.36;59.79;99476.26;1754507;80;21134;-48
2021/01/31 11:28:44;;;;;;;12.70;6.25;;;;;;;1.47;59.68;99479.08;1744106;81;22839;-48
2021/01/31 11:31:12;;;;;;;15.98;7.12;;;;;;;1.58;60.08;99490.20;1753513;79;22069;-48
2021/01/31 11:33:40;;;;;;;14.25;6.95;;;;;;;1.70;59.60;99488.13;1750957;81;21140;-48
2021/01/31 11:36:08;;;;;;;10.80;5.87;;;;;;;1.75;58.55;99490.48;1745281;81;21105;-48
2021/01/31 11:38:36;;;;;;;11.80;5.45;;;;;;;1.71;58.57;99492.90;1744324;81;21128;-48
2021/01/31 11:41:04;;;;;;;14.78;6.83;;;;;;;1.65;58.56;99494.56;1738210;81;21931;-48
2021/01/31 11:43:32;;;;;;;12.80;6.33;;;;;;;1.57;58.19;99497.17;1750028;81;21144;-48
2021/01/31 11:46:00;;;;;;;11.25;5.58;;;;;;;1.48;58.43;99502.92;1726732;81;20993;-49
2021/01/31 11:48:28;;;;;;;11.33;5.33;;;;;;;1.40;58.03;99496.02;1725132;82;21146;-48
2021/01/31 11:50:55;;;;;;;11.20;5.62;;;;;;;1.27;57.65;99501.12;1725496;82;22060;-49
2021/01/31 11:53:24;;;;;;;18.30;8.70;;;;;;;1.12;58.21;99502.82;1725319;82;21383;-48
2021/01/31 11:55:51;;;;;;;18.67;8.23;;;;;;;1.12;58.99;99508.89;1724751;82;22141;-47
2021/01/31 11:58:19;;;;;;;16.82;8.05;;;;;;;1.25;59.52;99505.58;1724776;82;21135;-48
2021/01/31 12:00:47;;;;;;;13.58;6.70;;;;;;;1.40;59.34;99507.75;1724529;82;21633;-48
2021/01/31 12:03:15;;;;;;;12.10;6.15;;;;;;;1.50;58.92;99510.19;1725357;82;21114;-48
2021/01/31 12:05:42;;;;;;;13.15;5.67;;;;;;;1.53;59.36;99507.41;1724819;82;23143;-48